Time;durP1;ratioP1;P1;durP2;ratioP2;P2;SDS_P1;SDS_P2;PMS_P1;PMS_P2;Temp;Humidity;BMP_temperature;BMP_pressure;BME280_temperature;BME280_humidity;BME280_pressure;Samples;Min_cycle;Max_cycle;Signal;HPM_P1;HPM_P2
2022/04/06 00:02:12;;;;;;;;;12.20;11.40;;;;;14.16;31.72;98898.63;5049107;28;8829;-76
2022/04/06 00:04:40;;;;;;;;;23.40;21.60;;;;;14.13;32.03;98896.06;5047807;28;8934;-73
2022/04/06 00:07:09;;;;;;;;;16.80;15.80;;;;;14.11;31.26;98901.34;5045182;28;8929;-73
2022/04/06 00:09:39;;;;;;;;;27.60;26.20;;;;;14.11;32.05;98890.88;5027937;28;8970;-77
2022/04/06 00:12:09;;;;;;;;;12.40;12.40;;;;;14.12;31.12;98896.97;5029190;28;8898;-73
2022/04/06 00:14:38;;;;;;;;;15.40;15.40;;;;;14.14;31.74;98895.16;5032971;28;9606;-74
2022/04/06 00:17:07;;;;;;;;;21.80;17.60;;;;;14.14;31.67;98903.91;5048384;28;8857;-76
2022/04/06 00:19:38;;;;;;;;;42.00;38.00;;;;;14.04;33.72;98900.66;5048533;28;8845;-74
2022/04/06 00:22:07;;;;;;;;;25.00;24.00;;;;;13.99;32.44;98899.06;5048483;28;8865;-73
2022/04/06 00:24:35;;;;;;;;;15.20;15.20;;;;;13.93;31.75;98894.81;5047734;28;8861;-73
2022/04/06 00:27:04;;;;;;;;;14.00;12.40;;;;;13.89;32.16;98885.28;5047709;28;8869;-73
2022/04/06 00:29:33;;;;;;;;;41.00;36.00;;;;;13.88;33.46;98885.34;5045854;28;9614;-73
2022/04/06 00:32:02;;;;;;;;;20.60;20.60;;;;;13.68;32.82;98894.53;5027733;28;8952;-72
2022/04/06 00:37:23;;;;;;;;;17.50;17.50;;;;;13.78;33.99;98896.06;4981181;28;8895;-75
2022/04/06 00:39:52;;;;;;;;;33.50;29.50;;;;;13.79;33.09;98897.75;4951433;28;8875;-75
2022/04/06 00:42:20;;;;;;;;;26.00;25.50;;;;;13.79;32.96;98897.75;4967271;28;8879;-73
2022/04/06 00:44:49;;;;;;;;;27.60;24.00;;;;;13.78;33.46;98895.16;4935368;28;8862;-73
2022/04/06 00:47:17;;;;;;;;;21.20;21.20;;;;;13.79;32.59;98895.13;4904152;28;8925;-73
2022/04/06 00:49:46;;;;;;;;;17.40;16.00;;;;;13.81;32.58;98892.47;4959302;28;8910;-75
2022/04/06 00:52:15;;;;;;;;;18.00;18.00;;;;;13.81;32.56;98898.56;4986398;28;8927;-73
2022/04/06 00:54:46;;;;;;;;;28.60;26.00;;;;;13.70;32.82;98891.88;4986409;28;8861;-73
2022/04/06 00:57:19;;;;;;;;;24.80;21.80;;;;;13.73;32.78;98897.06;4938369;28;8939;-73
2022/04/06 00:59:57;;;;;;;;;31.50;29.25;;;;;13.68;33.38;98896.28;4942038;28;8880;-74
2022/04/06 01:02:27;;;;;;;;;17.00;15.60;;;;;13.68;32.87;98898.91;4950927;28;8898;-73
2022/04/06 01:04:55;;;;;;;;;24.60;20.40;;;;;13.63;32.60;98896.41;4950893;28;8918;-75
2022/04/06 01:07:25;;;;;;;;;17.20;14.20;;;;;13.64;33.01;98901.59;4963814;28;8911;-72
2022/04/06 01:09:55;;;;;;;;;27.50;24.25;;;;;13.68;33.30;98906.78;4966885;28;8863;-74
2022/04/06 01:12:27;;;;;;;;;21.00;19.80;;;;;13.64;32.33;98908.59;4950729;28;8860;-76
2022/04/06 01:14:56;;;;;;;;;52.75;44.50;;;;;13.54;35.68;98904.50;5035938;28;8840;-74
2022/04/06 01:17:33;;;;;;;;;53.25;42.25;;;;;13.25;36.39;98903.31;5048920;28;8929;-74
2022/04/06 01:20:02;;;;;;;;;52.50;42.75;;;;;13.21;35.48;98904.28;5065102;28;8840;-75
2022/04/06 01:22:32;;;;;;;;;42.75;37.75;;;;;13.09;36.03;98908.03;5056975;28;8853;-73
2022/04/06 01:25:02;;;;;;;;;33.00;31.50;;;;;12.90;35.41;98915.41;5085765;28;8904;-74
2022/04/06 01:27:31;;;;;;;;;42.50;37.50;;;;;12.89;36.31;98916.28;5052059;28;8842;-73
2022/04/06 01:29:59;;;;;;;;;52.25;43.00;;;;;12.95;36.85;98907.44;5068799;28;8876;-73
2022/04/06 01:32:32;;;;;;;;;33.00;31.50;;;;;12.82;36.03;98918.19;5051695;28;8965;-73
2022/04/06 01:35:01;;;;;;;;;16.80;15.60;;;;;12.85;34.08;98912.91;5079222;28;8868;-75
2022/04/06 01:37:32;;;;;;;;;14.20;11.80;;;;;12.91;33.92;98897.94;5032967;28;8856;-75
2022/04/06 01:40:03;;;;;;;;;15.60;15.60;;;;;12.95;34.39;98916.19;5036337;28;8848;-73
2022/04/06 01:42:32;;;;;;;;;17.20;14.00;;;;;12.98;34.00;98904.78;5028002;28;8843;-75
2022/04/06 01:45:00;;;;;;;;;12.40;12.40;;;;;13.03;33.66;98897.72;5029738;28;8872;-75
2022/04/06 01:47:29;;;;;;;;;12.60;12.20;;;;;13.03;33.39;98905.56;5031367;28;8844;-75
2022/04/06 01:52:45;;;;;;;;;13.40;13.00;;;;;12.91;33.79;98904.06;5031253;28;8867;-74
2022/04/06 01:55:15;;;;;;;;;10.80;10.80;;;;;12.95;33.88;98910.06;5030109;28;9566;-76
2022/04/06 01:57:45;;;;;;;;;15.60;15.20;;;;;12.95;33.62;98915.31;5011617;28;8849;-72
2022/04/06 02:00:16;;;;;;;;;28.00;28.00;;;;;12.88;35.16;98912.81;5050002;28;8942;-73
2022/04/06 02:02:48;;;;;;;;;22.60;19.20;;;;;12.77;35.01;98914.78;5047955;28;8852;-72
2022/04/06 02:05:17;;;;;;;;;15.20;13.40;;;;;12.82;34.17;98912.94;5030101;28;8985;-73
2022/04/06 02:07:47;;;;;;;;;7.40;7.20;;;;;12.85;33.80;98912.91;5031318;28;8866;-73
2022/04/06 02:10:17;;;;;;;;;14.00;11.40;;;;;12.95;33.89;98917.91;5012540;28;8879;-75
2022/04/06 02:12:46;;;;;;;;;15.00;14.00;;;;;13.03;33.47;98902.94;5030049;28;8925;-73
2022/04/06 02:15:16;;;;;;;;;9.40;9.00;;;;;13.04;32.95;98910.78;4995335;28;8944;-74
2022/04/06 02:17:45;;;;;;;;;9.60;9.60;;;;;13.09;33.16;98910.66;5031335;28;8843;-74
2022/04/06 02:20:14;;;;;;;;;12.80;12.80;;;;;13.16;33.60;98903.56;5031006;28;8928;-73
2022/04/06 02:22:50;;;;;;;;;16.20;14.80;;;;;13.17;33.46;98908.72;5029455;28;8856;-74
2022/04/06 02:25:19;;;;;;;;;19.60;17.00;;;;;13.14;33.16;98910.59;5030647;28;8855;-75
2022/04/06 02:27:50;;;;;;;;;31.00;26.25;;;;;13.23;34.76;98908.63;5030928;28;8902;-73
2022/04/06 02:30:20;;;;;;;;;16.40;15.80;;;;;13.23;34.24;98916.47;5029074;28;9023;-73
2022/04/06 02:32:49;;;;;;;;;17.60;14.00;;;;;13.26;33.36;98913.78;5030818;28;8839;-72
2022/04/06 02:35:18;;;;;;;;;12.40;11.00;;;;;13.31;33.51;98916.34;5015997;28;8887;-73
2022/04/06 02:37:46;;;;;;;;;12.00;10.00;;;;;13.34;33.17;98918.03;5030683;28;8929;-73
2022/04/06 02:40:17;;;;;;;;;14.00;14.00;;;;;13.33;33.48;98909.31;5030596;28;8839;-73
2022/04/06 02:42:46;;;;;;;;;11.20;11.00;;;;;13.37;33.37;98908.34;5029238;28;8861;-74
2022/04/06 02:45:14;;;;;;;;;15.60;13.40;;;;;13.38;33.03;98906.56;5012082;28;8840;-73
2022/04/06 02:47:47;;;;;;;;;1.40;1.40;;;;;13.41;33.25;98906.53;5029643;28;8840;-74
2022/04/06 02:50:16;;;;;;;;;11.80;11.00;;;;;13.40;32.72;98899.53;5030124;28;8839;-76
2022/04/06 02:52:45;;;;;;;;;14.00;10.00;;;;;13.42;33.12;98910.84;4982940;28;8864;-74
2022/04/06 02:55:14;;;;;;;;;13.80;10.60;;;;;13.42;32.94;98903.88;5014488;28;8865;-75
2022/04/06 02:57:45;;;;;;;;;9.80;9.80;;;;;13.45;33.00;98895.94;5015152;28;8857;-73
2022/04/06 03:00:15;;;;;;;;;11.80;11.80;;;;;13.49;31.99;98901.09;5049856;28;8845;-74
2022/04/06 03:02:46;;;;;;;;;15.40;15.20;;;;;13.51;32.17;98896.69;4998239;28;8837;-74
2022/04/06 03:05:14;;;;;;;;;14.20;14.00;;;;;13.51;32.45;98888.84;5008783;28;8993;-73
2022/04/06 03:07:43;;;;;;;;;12.80;12.80;;;;;13.49;32.12;98895.88;4988260;28;8864;-74
2022/04/06 03:10:12;;;;;;;;;11.60;11.60;;;;;13.44;32.18;98899.47;4987994;28;8868;-72
2022/04/06 03:12:41;;;;;;;;;11.40;10.80;;;;;13.41;32.28;98901.28;4987619;28;8840;-73
2022/04/06 03:15:11;;;;;;;;;15.40;13.60;;;;;13.48;32.63;98909.84;4987829;28;8852;-75
2022/04/06 03:17:39;;;;;;;;;12.40;12.40;;;;;13.54;32.56;98901.88;4987630;28;8886;-74
2022/04/06 03:20:10;;;;;;;;;12.20;12.00;;;;;13.56;33.00;98900.06;4987572;28;8861;-76
2022/04/06 03:22:39;;;;;;;;;21.40;20.80;;;;;13.55;32.57;98901.81;4986009;28;8826;-74
2022/04/06 03:25:08;;;;;;;;;64.75;52.00;;;;;13.56;33.34;98900.94;5007646;28;8859;-72
2022/04/06 03:27:37;;;;;;;;;26.50;25.00;;;;;13.52;33.15;98896.66;5008223;28;8858;-73
2022/04/06 03:30:11;;;;;;;;;29.25;26.75;;;;;13.41;33.92;98899.50;5012406;28;9687;-73
2022/04/06 03:32:42;;;;;;;;;15.20;14.60;;;;;13.35;33.03;98898.81;5026871;28;8860;-78
2022/04/06 03:35:11;;;;;;;;;18.20;17.00;;;;;13.32;33.47;98904.94;5030300;28;8882;-73
2022/04/06 03:37:40;;;;;;;;;20.60;19.80;;;;;13.30;33.25;98893.66;4974046;28;8840;-75
2022/04/06 03:40:10;;;;;;;;;24.40;22.20;;;;;13.30;33.20;98896.28;5026825;28;8860;-73
2022/04/06 03:42:38;;;;;;;;;9.80;7.80;;;;;13.33;32.95;98897.97;5027613;28;8835;-72
2022/04/06 03:45:08;;;;;;;;;18.20;18.20;;;;;13.33;33.08;98896.22;5050472;28;8976;-73
2022/04/06 03:47:38;;;;;;;;;19.60;19.60;;;;;13.38;33.06;98896.09;4978508;28;8855;-74
2022/04/06 03:50:09;;;;;;;;;17.80;17.00;;;;;13.41;33.32;98891.66;5061384;28;8945;-75
2022/04/06 03:52:37;;;;;;;;;20.80;18.60;;;;;13.43;33.32;98887.25;4979429;28;8856;-74
2022/04/06 03:55:08;;;;;;;;;22.60;21.80;;;;;13.45;33.11;98893.31;5029511;28;9650;-75
2022/04/06 03:57:37;;;;;;;;;16.80;15.00;;;;;13.48;32.42;98895.00;5012074;28;8874;-74
2022/04/06 04:00:08;;;;;;;;;16.00;15.00;;;;;13.51;33.06;98899.31;5030307;28;9031;-73
2022/04/06 04:02:37;;;;;;;;;16.40;16.40;;;;;13.41;32.81;98902.13;5028811;28;8888;-72
2022/04/06 04:05:08;;;;;;;;;22.00;19.80;;;;;13.42;33.41;98898.63;5027544;28;8839;-76
2022/04/06 04:07:38;;;;;;;;;47.50;40.25;;;;;13.33;34.54;98897.97;5026850;28;9779;-74
2022/04/06 04:10:09;;;;;;;;;24.50;23.75;;;;;13.24;34.83;98897.22;5042940;28;8903;-73
2022/04/06 04:12:39;;;;;;;;;27.50;26.50;;;;;13.23;35.29;98906.00;5048826;28;8841;-74
2022/04/06 04:15:08;;;;;;;;;19.60;19.00;;;;;13.25;33.66;98901.59;5048094;28;8861;-75
2022/04/06 04:17:37;;;;;;;;;19.80;18.00;;;;;13.29;34.05;98904.13;5016000;28;8882;-73
2022/04/06 04:20:09;;;;;;;;;19.40;19.40;;;;;13.35;34.58;98898.81;5028741;28;9632;-74
2022/04/06 04:22:38;;;;;;;;;21.20;19.80;;;;;13.30;34.33;98898.88;5027190;28;8890;-76
2022/04/06 04:25:08;;;;;;;;;27.00;23.60;;;;;13.33;34.25;98897.97;5015902;28;8922;-75
2022/04/06 04:27:37;;;;;;;;;17.80;17.60;;;;;13.36;33.78;98906.59;5068344;28;8854;-74
2022/04/06 04:30:07;;;;;;;;;23.00;21.00;;;;;13.28;35.09;98905.88;5066950;28;8876;-72
2022/04/06 04:32:36;;;;;;;;;33.50;32.00;;;;;13.40;34.22;98910.91;5060349;28;8913;-72
2022/04/06 04:35:06;;;;;;;;;27.25;26.75;;;;;13.53;33.24;98906.22;5043469;28;9708;-74
2022/04/06 04:37:37;;;;;;;;;20.80;20.80;;;;;13.62;33.64;98913.88;4993454;28;8872;-77
2022/04/06 04:40:07;;;;;;;;;23.60;21.40;;;;;13.74;33.24;98911.88;5027890;28;8859;-72
2022/04/06 04:42:35;;;;;;;;;17.20;17.00;;;;;13.80;33.45;98911.75;5038549;28;8861;-72
2022/04/06 04:45:06;;;;;;;;;19.80;19.20;;;;;13.90;33.29;98909.75;5030312;28;8866;-75
2022/04/06 04:47:34;;;;;;;;;27.00;23.20;;;;;13.98;32.74;98920.91;4997163;28;8888;-74
2022/04/06 04:50:03;;;;;;;;;27.50;23.75;;;;;14.07;32.32;98911.97;5033762;28;8945;-73
2022/04/06 04:52:33;;;;;;;;;25.25;23.75;;;;;14.15;32.65;98908.22;5009461;28;8879;-74
2022/04/06 04:55:02;;;;;;;;;33.00;30.25;;;;;14.19;33.30;98909.00;5026812;28;8855;-74
2022/04/06 04:57:31;;;;;;;;;24.25;23.75;;;;;14.23;32.95;98916.78;4986981;28;8950;-73
2022/04/06 05:00:00;;;;;;;;;22.40;20.60;;;;;14.32;32.73;98915.66;5046498;28;8852;-75
2022/04/06 05:02:28;;;;;;;;;25.75;23.00;;;;;14.40;32.63;98912.84;5030620;28;8864;-73
2022/04/06 05:04:57;;;;;;;;;22.00;20.75;;;;;14.38;32.31;98920.75;5009519;28;8852;-73
2022/04/06 05:07:25;;;;;;;;;27.00;26.50;;;;;14.43;32.26;98921.50;5026286;28;8981;-75
2022/04/06 05:09:54;;;;;;;;;26.00;24.25;;;;;14.45;31.95;98923.22;5008873;28;8869;-73
2022/04/06 05:12:26;;;;;;;;;23.40;22.80;;;;;14.58;32.01;98922.88;5008713;28;8945;-74
2022/04/06 05:14:54;;;;;;;;;27.75;25.75;;;;;14.70;32.03;98926.09;5025118;28;8860;-74
2022/04/06 05:17:23;;;;;;;;;27.75;26.25;;;;;14.78;32.15;98930.22;5044203;28;8912;-74
2022/04/06 05:19:52;;;;;;;;;26.00;25.75;;;;;14.89;31.66;98926.44;5049105;28;8850;-74
2022/04/06 05:22:20;;;;;;;;;31.00;29.50;;;;;15.00;31.52;98929.63;5032074;28;8866;-74
2022/04/06 05:24:49;;;;;;;;;27.50;27.50;;;;;15.11;31.23;98932.78;4999053;28;8947;-73
2022/04/06 05:27:18;;;;;;;;;19.80;18.80;;;;;15.14;30.61;98937.97;4979962;28;8889;-77
2022/04/06 05:29:48;;;;;;;;;25.50;24.00;;;;;15.27;31.02;98935.81;5011884;28;8872;-72
2022/04/06 05:32:17;;;;;;;;;19.80;18.80;;;;;15.28;30.59;98934.06;5029487;28;8859;-76
2022/04/06 05:34:45;;;;;;;;;21.60;19.80;;;;;15.44;30.55;98937.94;5031258;28;8877;-74
2022/04/06 05:37:14;;;;;;;;;17.20;16.80;;;;;15.48;30.14;98936.09;5030618;28;8988;-74
2022/04/06 05:39:42;;;;;;;;;27.00;24.25;;;;;15.59;30.66;98934.00;5047315;28;8878;-74
2022/04/06 05:42:11;;;;;;;;;28.25;24.00;;;;;15.60;30.46;98941.84;4998166;28;9163;-74
2022/04/06 05:44:40;;;;;;;;;27.25;27.25;;;;;15.75;30.46;98947.56;5014310;28;8863;-74
2022/04/06 05:47:10;;;;;;;;;35.50;33.00;;;;;15.75;30.73;98947.56;5028623;28;8956;-73
2022/04/06 05:49:38;;;;;;;;;28.00;26.25;;;;;15.87;30.85;98952.44;5029994;28;8827;-77
2022/04/06 05:52:08;;;;;;;;;25.00;23.75;;;;;16.00;30.43;98945.00;5031012;28;9004;-73
2022/04/06 05:54:37;;;;;;;;;31.75;30.50;;;;;16.10;30.30;98945.56;5038908;28;8880;-74
2022/04/06 05:57:06;;;;;;;;;28.00;25.00;;;;;16.23;30.36;98946.88;5050644;28;8892;-72
2022/04/06 05:59:36;;;;;;;;;31.00;27.75;;;;;16.31;30.23;98947.50;4995889;28;8844;-73
2022/04/06 06:02:05;;;;;;;;;23.80;23.60;;;;;16.38;30.07;98951.63;5030843;28;9014;-74
2022/04/06 06:04:35;;;;;;;;;23.60;23.20;;;;;16.45;30.12;98949.66;5030528;28;9014;-79
2022/04/06 06:07:05;;;;;;;;;32.25;27.00;;;;;16.61;30.04;98944.72;5030140;28;8924;-75
2022/04/06 06:09:34;;;;;;;;;24.25;24.00;;;;;16.77;29.67;98943.28;5029160;28;8966;-75
2022/04/06 06:12:03;;;;;;;;;34.50;29.75;;;;;16.93;29.77;98934.84;5030719;28;8875;-81
2022/04/06 06:14:32;;;;;;;;;25.00;23.60;;;;;17.12;29.30;98932.38;5022682;28;8872;-81
2022/04/06 06:17:00;;;;;;;;;26.40;25.20;;;;;17.31;29.26;98932.56;5030417;28;8931;-82
2022/04/06 06:19:30;;;;;;;;;28.20;25.60;;;;;17.49;28.92;98929.22;5062701;28;9640;-82
2022/04/06 06:22:00;;;;;;;;;25.80;21.60;;;;;17.67;28.87;98930.25;5016112;28;8861;-80
2022/04/06 06:24:29;;;;;;;;;13.80;13.60;;;;;17.81;28.34;98937.66;5029326;28;8877;-82
2022/04/06 06:26:59;;;;;;;;;27.80;23.40;;;;;17.98;28.58;98929.09;5032799;28;8974;-77
2022/04/06 06:29:27;;;;;;;;;29.75;28.75;;;;;18.07;28.48;98933.13;5045543;28;8861;-77
2022/04/06 06:31:56;;;;;;;;;26.00;24.75;;;;;18.04;28.46;98927.97;5048905;28;8852;-71
2022/04/06 06:34:25;;;;;;;;;37.75;34.00;;;;;18.05;28.46;98929.69;5015242;28;9027;-72
2022/04/06 06:36:54;;;;;;;;;32.00;30.25;;;;;18.08;28.47;98925.13;5030062;28;8958;-72
2022/04/06 06:39:24;;;;;;;;;20.40;19.40;;;;;18.23;27.67;98930.72;5030041;28;8891;-72
2022/04/06 06:41:52;;;;;;;;;24.00;24.00;;;;;18.38;27.68;98919.50;5028450;28;8878;-74
2022/04/06 06:44:21;;;;;;;;;29.00;25.25;;;;;18.36;27.74;98936.34;5029417;28;8852;-73
2022/04/06 06:46:50;;;;;;;;;18.80;17.00;;;;;18.49;27.38;98924.34;5029599;28;8929;-73
2022/04/06 06:49:18;;;;;;;;;16.00;16.00;;;;;18.60;27.46;98926.50;5027967;28;8979;-72
2022/04/06 06:51:47;;;;;;;;;16.40;15.60;;;;;18.72;26.45;98930.41;5030041;28;8941;-72
2022/04/06 06:54:15;;;;;;;;;19.20;17.40;;;;;18.80;27.34;98923.00;5030703;28;9756;-73
2022/04/06 06:56:45;;;;;;;;;16.20;13.80;;;;;18.94;27.16;98930.31;5049821;28;8882;-71
2022/04/06 06:59:14;;;;;;;;;14.40;13.60;;;;;19.03;27.39;98930.78;5049259;28;8825;-71
2022/04/06 07:01:43;;;;;;;;;16.20;15.80;;;;;19.06;26.41;98932.44;5036790;28;8886;-75
2022/04/06 07:04:15;;;;;;;;;15.80;15.60;;;;;19.09;26.93;98938.44;5030508;28;8857;-74
2022/04/06 07:06:44;;;;;;;;;15.40;15.20;;;;;19.05;26.91;98938.63;5011138;28;8856;-72
2022/04/06 07:09:13;;;;;;;;;16.60;16.00;;;;;19.11;26.84;98933.09;5028898;28;8852;-76
2022/04/06 07:11:41;;;;;;;;;18.40;14.00;;;;;19.05;26.90;98938.63;5029658;28;8879;-72
2022/04/06 07:14:11;;;;;;;;;17.00;16.20;;;;;19.11;27.06;98935.75;5029230;28;8847;-74
2022/04/06 07:16:40;;;;;;;;;23.00;20.00;;;;;19.14;27.07;98943.50;5027651;28;9661;-71
2022/04/06 07:19:09;;;;;;;;;21.20;18.60;;;;;19.28;27.21;98940.22;5038403;28;8849;-74
2022/04/06 07:21:37;;;;;;;;;15.00;14.80;;;;;19.40;26.95;98936.19;5037783;28;8877;-74
2022/04/06 07:24:06;;;;;;;;;13.00;12.20;;;;;19.56;26.82;98938.94;5042043;28;8973;-72
2022/04/06 07:26:35;;;;;;;;;18.60;16.80;;;;;19.65;26.73;98938.53;5037856;28;8974;-73
2022/04/06 07:29:04;;;;;;;;;15.80;15.20;;;;;19.72;26.47;98939.09;5028962;28;8831;-73
2022/04/06 07:31:33;;;;;;;;;14.40;13.60;;;;;19.74;26.23;98932.81;5044149;28;8893;-74
2022/04/06 07:34:02;;;;;;;;;15.20;14.20;;;;;19.82;26.04;98943.88;5028950;28;8860;-74
2022/04/06 07:36:32;;;;;;;;;11.80;11.80;;;;;19.82;26.21;98941.25;5035791;28;8873;-74
2022/04/06 07:39:03;;;;;;;;;16.40;14.40;;;;;19.90;25.63;98932.94;5047064;28;8927;-76
2022/04/06 07:41:32;;;;;;;;;18.40;17.80;;;;;19.95;25.79;98944.16;5027588;28;8894;-71
2022/04/06 07:44:02;;;;;;;;;8.40;8.00;;;;;20.06;25.65;98933.91;5044460;28;8859;-74
2022/04/06 07:46:31;;;;;;;;;13.00;11.40;;;;;20.20;25.45;98942.94;5028965;28;8855;-71
2022/04/06 07:49:01;;;;;;;;;11.40;11.40;;;;;20.17;24.72;98941.31;5041197;28;8925;-72
2022/04/06 07:51:31;;;;;;;;;15.00;13.80;;;;;20.16;25.13;98936.09;5045908;28;8862;-75
2022/04/06 07:54:00;;;;;;;;;13.60;12.60;;;;;20.25;24.88;98940.94;5037276;28;8855;-72
2022/04/06 07:56:29;;;;;;;;;13.00;12.00;;;;;20.27;24.94;98947.00;5028203;28;9605;-70
2022/04/06 07:58:57;;;;;;;;;15.00;14.00;;;;;20.31;24.53;98943.28;5003134;28;8865;-71
2022/04/06 08:01:33;;;;;;;;;13.80;12.00;;;;;20.30;24.54;98946.84;5031222;28;8868;-72
2022/04/06 08:04:03;;;;;;;;;14.80;13.80;;;;;20.41;24.38;98946.31;5042627;28;8829;-71
2022/04/06 08:06:32;;;;;;;;;13.80;12.60;;;;;20.44;24.09;98949.66;5046469;28;8873;-75
2022/04/06 08:09:02;;;;;;;;;14.00;12.80;;;;;20.47;24.24;98942.50;5046935;28;8853;-76
2022/04/06 08:11:31;;;;;;;;;12.00;12.00;;;;;20.41;23.93;98948.94;5047282;28;8884;-72
2022/04/06 08:14:00;;;;;;;;;11.40;11.40;;;;;20.53;23.73;98948.34;5027773;28;8856;-75
2022/04/06 08:16:28;;;;;;;;;14.80;13.60;;;;;20.56;23.88;98939.38;5039076;28;8837;-71
2022/04/06 08:18:57;;;;;;;;;12.60;12.20;;;;;20.57;23.29;98936.66;5047329;28;8845;-73
2022/04/06 08:21:27;;;;;;;;;11.80;11.80;;;;;20.66;23.59;98943.28;5046071;28;8877;-73
2022/04/06 08:23:58;;;;;;;;;12.60;12.60;;;;;20.53;23.42;98947.47;5047332;28;8899;-74
2022/04/06 08:26:27;;;;;;;;;13.00;13.00;;;;;20.56;23.25;98942.88;5047747;28;9016;-73
2022/04/06 08:28:56;;;;;;;;;10.40;10.40;;;;;20.53;22.79;98937.75;5046352;28;8865;-75
2022/04/06 08:31:24;;;;;;;;;12.20;11.20;;;;;20.63;22.90;98946.09;5045804;28;8945;-69
2022/04/06 08:33:54;;;;;;;;;10.80;9.60;;;;;20.69;23.23;98945.78;5009605;28;8860;-70
2022/04/06 08:36:24;;;;;;;;;12.80;11.80;;;;;20.70;23.28;98950.16;4980614;28;8921;-72
2022/04/06 08:38:57;;;;;;;;;11.80;11.80;;;;;20.83;23.04;98950.34;5044846;28;8934;-72
2022/04/06 08:41:29;;;;;;;;;14.80;14.80;;;;;20.87;23.46;98946.63;5013063;28;8857;-71
2022/04/06 08:44:04;;;;;;;;;11.20;11.20;;;;;21.04;23.55;98948.41;4977256;28;8882;-71
2022/04/06 08:46:35;;;;;;;;;12.80;12.80;;;;;21.20;23.48;98940.47;5032735;28;8865;-73
2022/04/06 08:49:05;;;;;;;;;13.60;13.60;;;;;21.30;23.11;98943.47;5045856;28;8942;-72
2022/04/06 08:51:34;;;;;;;;;11.20;11.20;;;;;21.36;22.83;98938.69;5038927;28;8876;-73
2022/04/06 08:54:04;;;;;;;;;11.40;11.40;;;;;21.36;22.86;98935.16;5027454;28;8860;-70
2022/04/06 08:56:33;;;;;;;;;12.00;12.00;;;;;21.39;23.13;98943.81;5044049;28;9638;-73
2022/04/06 08:59:01;;;;;;;;;9.60;9.20;;;;;21.42;22.06;98934.84;5047106;28;8893;-69
2022/04/06 09:01:33;;;;;;;;;10.60;10.00;;;;;21.42;22.13;98938.34;5047321;28;8881;-74
2022/04/06 09:04:02;;;;;;;;;10.00;10.00;;;;;21.58;22.67;98933.09;5047881;28;8865;-75
2022/04/06 09:06:51;;;;;;;;;11.60;10.20;;;;;21.54;22.77;98931.53;5018309;28;8915;-72
2022/04/06 09:09:25;;;;;;;;;12.00;12.00;;;;;21.56;22.42;98928.81;5047763;28;8822;-71
2022/04/06 09:11:53;;;;;;;;;13.00;12.60;;;;;21.73;22.07;98934.03;5047758;28;8987;-72
2022/04/06 09:14:30;;;;;;;;;10.80;9.60;;;;;21.73;22.29;98927.88;5042112;28;9607;-71
2022/04/06 09:17:03;;;;;;;;;12.40;10.40;;;;;21.78;22.10;98929.31;5012449;28;8885;-71
2022/04/06 09:19:36;;;;;;;;;10.00;9.40;;;;;21.78;21.99;98921.34;5017866;28;8867;-71
2022/04/06 09:22:07;;;;;;;;;14.80;12.80;;;;;21.71;22.17;98913.84;5040116;28;8857;-72
2022/04/06 09:24:37;;;;;;;;;12.80;10.60;;;;;21.91;22.44;98920.66;5027457;28;8853;-71
2022/04/06 09:27:06;;;;;;;;;12.20;12.20;;;;;21.97;22.58;98920.31;5045163;28;8869;-70
2022/04/06 09:29:35;;;;;;;;;9.20;9.00;;;;;22.04;22.40;98908.41;5011592;28;9713;-72
2022/04/06 09:32:09;;;;;;;;;13.40;13.00;;;;;21.95;22.51;98914.25;5011795;28;8991;-70
2022/04/06 09:34:58;;;;;;;;;11.00;11.00;;;;;22.04;22.39;98915.50;5046134;28;8923;-71
2022/04/06 09:37:28;;;;;;;;;13.60;12.20;;;;;22.15;22.57;98910.41;5042928;28;8872;-75
2022/04/06 09:40:08;;;;;;;;;9.80;8.80;;;;;22.21;22.12;98904.72;5026044;28;8858;-74
2022/04/06 09:42:37;;;;;;;;;7.20;7.20;;;;;22.11;21.93;98903.56;5029577;28;8852;-71
2022/04/06 09:48:05;;;;;;;;;7.80;7.60;;;;;22.14;21.89;98901.59;4985311;28;8911;-71
2022/04/06 09:50:35;;;;;;;;;9.00;9.00;;;;;22.16;21.69;98893.53;4984795;28;8849;-72
2022/04/06 09:53:04;;;;;;;;;8.40;8.40;;;;;22.20;21.82;98893.25;4932873;28;8905;-71
2022/04/06 09:55:35;;;;;;;;;4.80;4.60;;;;;22.28;21.90;98884.03;4918803;28;8855;-72
2022/04/06 09:58:05;;;;;;;;;10.60;9.20;;;;;22.17;22.16;98887.28;4963430;28;8985;-80
2022/04/06 10:00:37;;;;;;;;;9.40;9.40;;;;;22.23;22.53;98892.25;4965441;28;8881;-74
2022/04/06 10:03:07;;;;;;;;;11.00;10.00;;;;;22.34;22.36;98884.53;4934061;28;8885;-76
2022/04/06 10:05:39;;;;;;;;;7.60;7.60;;;;;22.42;22.19;98883.19;4949305;28;8853;-76
2022/04/06 10:08:09;;;;;;;;;9.40;9.40;;;;;22.45;21.95;98875.06;4950742;28;8881;-79
2022/04/06 10:10:42;;;;;;;;;6.60;6.60;;;;;22.43;22.39;98880.44;4929253;29;8960;-75
2022/04/06 10:13:10;;;;;;;;;9.00;8.20;;;;;22.45;21.97;98875.91;4928287;29;8980;-76
2022/04/06 10:15:59;;;;;;;;;8.40;8.40;;;;;22.52;21.90;98868.41;4912145;29;8857;-78
2022/04/06 10:18:31;;;;;;;;;8.80;8.80;;;;;22.26;22.45;98864.66;4911603;29;9003;-76
2022/04/06 10:21:10;;;;;;;;;7.20;6.60;;;;;22.42;21.91;98861.94;4928377;28;8861;-77
2022/04/06 10:23:48;;;;;;;;;7.00;6.40;;;;;22.47;22.25;98863.38;5021733;28;8831;-75
2022/04/06 10:26:34;;;;;;;;;5.40;5.40;;;;;22.46;21.89;98851.06;5008027;28;8968;-78
2022/04/06 10:29:05;;;;;;;;;10.60;8.80;;;;;22.60;22.65;98850.19;5008351;28;8858;-76
2022/04/06 10:31:34;;;;;;;;;6.80;6.80;;;;;22.73;22.38;98848.50;5010677;28;8844;-76
2022/04/06 10:34:22;;;;;;;;;7.40;7.40;;;;;22.81;22.36;98842.69;5011105;28;8868;-76
2022/04/06 10:37:12;;;;;;;;;12.00;10.60;;;;;22.90;21.98;98839.47;5037866;28;8879;-76
2022/04/06 10:40:00;;;;;;;;;8.80;7.60;;;;;23.06;22.44;98833.22;4972959;28;8895;-78
2022/04/06 10:42:34;;;;;;;;;5.20;5.20;;;;;23.12;22.19;98824.88;4978392;28;8970;-75
2022/04/06 10:45:04;;;;;;;;;4.40;3.80;;;;;23.20;21.84;98827.88;4971999;28;8849;-75
2022/04/06 10:47:33;;;;;;;;;5.80;5.80;;;;;23.12;21.24;98817.72;4988159;28;8853;-75
2022/04/06 10:50:24;;;;;;;;;9.40;8.80;;;;;23.21;22.03;98820.75;4988346;28;8871;-75
2022/04/06 10:53:26;;;;;;;;;5.00;4.00;;;;;23.28;21.61;98812.25;4989046;28;8854;-76
2022/04/06 10:56:03;;;;;;;;;3.00;3.00;;;;;23.33;21.41;98812.84;5007427;28;8870;-78
2022/04/06 10:59:06;;;;;;;;;3.60;3.60;;;;;23.21;21.23;98805.63;5007027;28;8878;-77
2022/04/06 11:01:35;;;;;;;;;4.40;4.40;;;;;23.31;21.70;98812.09;4991810;28;8878;-76
2022/04/06 11:04:06;;;;;;;;;3.20;2.80;;;;;23.39;21.43;98802.75;5008719;28;8861;-76
2022/04/06 11:06:55;;;;;;;;;3.20;3.20;;;;;23.44;20.83;98803.28;4998236;28;8829;-76
2022/04/06 11:12:13;;;;;;;;;3.20;3.20;;;;;23.66;21.32;98803.56;4972489;28;8864;-76
2022/04/06 11:14:45;;;;;;;;;4.00;4.00;;;;;23.65;20.97;98801.03;4956435;28;9602;-76
2022/04/06 11:17:37;;;;;;;;;3.20;3.20;;;;;23.79;20.89;98789.50;5016258;28;8883;-76
2022/04/06 11:20:08;;;;;;;;;3.00;3.00;;;;;23.86;20.92;98802.28;5029807;28;8847;-75
2022/04/06 11:22:39;;;;;;;;;3.60;2.80;;;;;24.07;20.42;98796.47;5011330;28;8875;-75
2022/04/06 11:25:11;;;;;;;;;4.60;4.60;;;;;24.24;20.79;98790.81;4996159;28;8963;-78
2022/04/06 11:27:42;;;;;;;;;3.40;3.40;;;;;24.40;20.59;98784.44;5028091;28;8891;-76
2022/04/06 11:30:13;;;;;;;;;4.40;4.40;;;;;24.48;20.43;98782.06;5029258;28;8864;-75
2022/04/06 11:32:44;;;;;;;;;6.40;5.00;;;;;24.62;20.96;98784.66;5029547;28;8933;-79
2022/04/06 11:35:15;;;;;;;;;6.20;6.20;;;;;24.61;20.78;98766.97;5029214;28;8969;-76
2022/04/06 11:37:46;;;;;;;;;4.60;4.60;;;;;24.84;20.83;98764.44;5044649;28;8859;-77
2022/04/06 11:40:17;;;;;;;;;5.20;4.20;;;;;24.80;20.58;98761.19;5028774;28;8879;-77
2022/04/06 11:42:48;;;;;;;;;5.00;5.00;;;;;24.99;20.61;98759.81;5027793;28;8874;-78
2022/04/06 11:45:22;;;;;;;;;6.00;5.00;;;;;25.12;20.42;98768.63;5029142;28;8847;-76
2022/04/06 11:47:56;;;;;;;;;4.00;4.00;;;;;25.28;19.95;98763.91;5029148;28;9668;-77
2022/04/06 11:50:29;;;;;;;;;5.40;4.00;;;;;25.49;20.37;98741.94;5027914;28;8875;-76
2022/04/06 11:53:02;;;;;;;;;6.00;6.00;;;;;25.71;20.09;98749.19;5027670;28;8956;-76
2022/04/06 11:55:41;;;;;;;;;6.00;6.00;;;;;25.67;19.69;98739.69;5010722;28;8882;-78
2022/04/06 11:58:11;;;;;;;;;7.40;5.20;;;;;25.64;19.66;98738.09;5027792;28;8867;-75